createdAt,value
2018-12-06T00:01:26.955Z,88.00
2018-12-06T00:04:00.208Z,88.00
2018-12-06T00:06:32.623Z,88.00
2018-12-06T00:09:06.285Z,88.50
2018-12-06T00:11:39.231Z,87.50
2018-12-06T00:14:11.643Z,87.80
2018-12-06T00:16:50.988Z,87.70
2018-12-06T00:19:23.649Z,87.60
2018-12-06T00:21:56.830Z,87.70
2018-12-06T00:24:30.103Z,87.60
2018-12-06T00:27:02.811Z,87.50
2018-12-06T00:29:37.207Z,87.70
2018-12-06T00:32:09.539Z,87.70
2018-12-06T00:34:42.236Z,87.80
2018-12-06T00:37:15.434Z,87.80
2018-12-06T00:39:48.108Z,87.90
2018-12-06T00:42:21.163Z,87.90
2018-12-06T00:44:59.314Z,88.20
2018-12-06T00:47:38.899Z,88.20
2018-12-06T00:50:11.669Z,88.20
2018-12-06T00:52:44.828Z,88.40
2018-12-06T00:55:18.325Z,88.50
2018-12-06T00:57:51.548Z,88.50
2018-12-06T01:00:24.023Z,88.70
2018-12-06T01:02:56.359Z,88.60
2018-12-06T01:05:28.878Z,88.60
2018-12-06T01:08:03.583Z,88.50
2018-12-06T01:10:36.768Z,88.50
2018-12-06T01:13:09.927Z,88.50
2018-12-06T01:15:42.383Z,88.40
2018-12-06T01:18:15.754Z,88.80
2018-12-06T01:20:48.128Z,88.20
2018-12-06T01:23:20.607Z,88.30
2018-12-06T01:25:53.852Z,89.20
2018-12-06T01:28:26.210Z,88.40
2018-12-06T01:30:59.029Z,88.50
2018-12-06T01:33:32.183Z,88.70
2018-12-06T01:36:05.720Z,88.80
2018-12-06T01:38:38.928Z,88.80
2018-12-06T01:41:13.296Z,88.70
2018-12-06T01:43:46.048Z,88.60
2018-12-06T01:46:19.221Z,88.00
2018-12-06T01:48:52.556Z,88.70
2018-12-06T01:51:25.705Z,88.90
2018-12-06T01:53:57.996Z,89.00
2018-12-06T01:56:30.532Z,89.10
2018-12-06T01:59:02.883Z,89.30
2018-12-06T02:01:36.529Z,89.40
2018-12-06T02:06:49.175Z,89.80
2018-12-06T02:09:22.822Z,90.30
2018-12-06T02:11:55.788Z,90.10
2018-12-06T02:14:28.254Z,90.10
2018-12-06T02:17:00.844Z,90.10
2018-12-06T02:19:34.140Z,90.40
2018-12-06T02:22:07.524Z,90.20
2018-12-06T02:24:39.985Z,90.30
2018-12-06T02:27:13.291Z,90.30
2018-12-06T02:29:52.198Z,90.40
2018-12-06T02:32:25.396Z,90.40
2018-12-06T02:34:58.635Z,90.60
2018-12-06T02:37:30.917Z,90.60
2018-12-06T02:40:05.631Z,90.70
2018-12-06T02:42:38.619Z,90.80
2018-12-06T02:45:12.834Z,90.80
2018-12-06T02:47:46.109Z,91.00
2018-12-06T02:53:47.505Z,91.00
2018-12-06T02:56:21.169Z,90.90
2018-12-06T02:58:54.046Z,90.90
2018-12-06T03:01:26.738Z,91.00
2018-12-06T03:03:59.869Z,91.10
2018-12-06T03:06:33.416Z,91.10
2018-12-06T03:09:06.976Z,91.10
2018-12-06T03:11:39.957Z,91.20
2018-12-06T03:14:12.376Z,91.20
2018-12-06T03:16:45.847Z,91.20
2018-12-06T03:19:19.308Z,91.30
2018-12-06T03:21:51.737Z,91.20
2018-12-06T03:24:24.947Z,91.20
2018-12-06T03:26:57.320Z,91.20
2018-12-06T03:29:30.716Z,91.20
2018-12-06T03:32:03.293Z,91.20
2018-12-06T03:34:36.756Z,91.20
2018-12-06T03:37:09.976Z,91.20
2018-12-06T03:39:43.293Z,91.20
2018-12-06T03:42:16.233Z,91.40
2018-12-06T03:44:49.146Z,91.20
2018-12-06T03:47:21.947Z,91.20
2018-12-06T03:49:55.129Z,91.20
2018-12-06T03:52:27.602Z,91.30
2018-12-06T03:55:00.802Z,91.30
2018-12-06T03:57:33.240Z,91.40
2018-12-06T04:00:05.784Z,91.40
2018-12-06T04:02:39.092Z,91.50
2018-12-06T04:05:12.444Z,91.60
2018-12-06T04:07:44.835Z,91.70
2018-12-06T04:10:18.113Z,91.90
2018-12-06T04:12:50.502Z,91.90
2018-12-06T04:15:23.018Z,92.00
2018-12-06T04:17:55.432Z,92.40
2018-12-06T04:20:28.935Z,92.30
2018-12-06T04:23:01.890Z,92.20
2018-12-06T04:25:34.612Z,92.20
2018-12-06T04:28:07.603Z,92.40
2018-12-06T04:30:41.204Z,92.50
2018-12-06T04:33:14.260Z,92.50
2018-12-06T04:35:47.552Z,92.50
2018-12-06T04:38:20.379Z,92.60
2018-12-06T04:40:53.295Z,92.60
2018-12-06T04:43:26.527Z,92.70
2018-12-06T04:45:59.231Z,92.50
2018-12-06T04:48:32.253Z,92.80
2018-12-06T04:51:04.621Z,92.80
2018-12-06T04:53:37.024Z,92.80
2018-12-06T04:56:10.685Z,92.80
2018-12-06T04:58:43.764Z,92.80
2018-12-06T05:01:16.363Z,92.80
2018-12-06T05:03:49.689Z,92.80
2018-12-06T05:06:23.079Z,92.90
2018-12-06T05:08:55.554Z,92.90
2018-12-06T05:11:29.233Z,92.90
2018-12-06T05:14:02.581Z,93.00
2018-12-06T05:16:35.873Z,93.10
2018-12-06T05:19:10.378Z,93.10
2018-12-06T05:21:43.353Z,93.10
2018-12-06T05:24:15.721Z,93.10
2018-12-06T05:26:48.307Z,93.40
2018-12-06T05:29:21.447Z,93.00
2018-12-06T05:31:54.915Z,93.00
2018-12-06T05:34:27.233Z,93.00
2018-12-06T05:36:59.592Z,93.00
2018-12-06T05:39:32.957Z,93.00
2018-12-06T05:42:05.312Z,93.00
2018-12-06T05:44:37.661Z,93.00
2018-12-06T05:47:09.980Z,93.00
2018-12-06T05:49:42.323Z,93.10
2018-12-06T05:52:15.724Z,93.00
2018-12-06T05:54:48.102Z,93.00
2018-12-06T05:57:21.414Z,93.00
2018-12-06T05:59:53.981Z,93.00
2018-12-06T06:02:26.494Z,93.00
2018-12-06T06:04:59.840Z,92.90
2018-12-06T06:07:33.271Z,92.90
2018-12-06T06:10:05.748Z,92.90
2018-12-06T06:12:38.918Z,92.80
2018-12-06T06:15:12.104Z,92.90
2018-12-06T06:17:45.440Z,92.90
2018-12-06T06:20:18.708Z,92.90
2018-12-06T06:22:58.918Z,92.90
2018-12-06T06:25:31.265Z,92.90
2018-12-06T06:28:04.577Z,92.80
2018-12-06T06:30:37.800Z,93.00
2018-12-06T06:33:10.207Z,93.10
2018-12-06T06:35:42.648Z,94.30
2018-12-06T06:38:15.066Z,93.90
2018-12-06T06:40:47.888Z,93.80
2018-12-06T06:43:20.884Z,93.70
2018-12-06T06:45:53.339Z,93.40
2018-12-06T06:48:25.839Z,93.40
2018-12-06T06:50:58.235Z,93.40
2018-12-06T06:53:30.576Z,93.40
2018-12-06T06:56:02.871Z,93.40
2018-12-06T06:58:35.223Z,93.40
2018-12-06T07:01:08.503Z,93.30
2018-12-06T07:03:41.199Z,93.40
2018-12-06T07:06:14.256Z,93.30
2018-12-06T07:08:46.779Z,93.30
2018-12-06T07:11:19.140Z,93.30
2018-12-06T07:13:52.693Z,93.30
2018-12-06T07:16:25.660Z,93.30
2018-12-06T07:18:57.995Z,93.30
2018-12-06T07:21:31.324Z,93.30
2018-12-06T07:24:03.948Z,93.30
2018-12-06T07:26:37.122Z,93.30
2018-12-06T07:29:10.431Z,93.30
2018-12-06T07:31:42.800Z,93.30
2018-12-06T07:34:16.031Z,93.30
2018-12-06T07:36:48.730Z,93.20
2018-12-06T07:39:21.721Z,93.20
2018-12-06T07:41:54.175Z,93.20
2018-12-06T07:44:27.391Z,93.20
2018-12-06T07:46:59.963Z,93.20
2018-12-06T07:49:33.272Z,93.20
2018-12-06T07:52:06.631Z,93.20
2018-12-06T07:54:39.025Z,93.30
2018-12-06T07:57:12.275Z,93.30
2018-12-06T07:59:44.571Z,93.30
2018-12-06T08:02:18.196Z,93.40
2018-12-06T08:04:51.293Z,93.30
2018-12-06T08:07:24.079Z,93.40
2018-12-06T08:09:57.011Z,93.40
2018-12-06T08:12:30.572Z,93.30
2018-12-06T08:15:05.995Z,93.10
2018-12-06T08:17:39.147Z,92.90
2018-12-06T08:20:12.415Z,92.80
2018-12-06T08:22:44.815Z,92.70
2018-12-06T08:25:18.103Z,92.50
2018-12-06T08:27:51.019Z,92.50
2018-12-06T08:30:24.116Z,92.50
2018-12-06T08:32:57.444Z,92.50
2018-12-06T08:35:30.741Z,92.50
2018-12-06T08:38:04.064Z,92.50
2018-12-06T08:40:37.364Z,92.50
2018-12-06T08:43:09.803Z,92.50
2018-12-06T08:45:42.312Z,92.50
2018-12-06T08:48:15.775Z,92.50
2018-12-06T08:50:48.878Z,92.30
2018-12-06T08:53:22.464Z,92.30
2018-12-06T08:55:55.607Z,92.30
2018-12-06T08:58:28.967Z,92.50
2018-12-06T09:01:02.374Z,92.10
2018-12-06T09:03:35.844Z,92.10
2018-12-06T09:06:08.955Z,92.20
2018-12-06T09:08:41.359Z,92.10
2018-12-06T09:11:14.835Z,92.20
2018-12-06T09:13:48.208Z,92.20
2018-12-06T09:16:21.252Z,92.20
2018-12-06T09:18:53.812Z,92.20
2018-12-06T09:21:27.084Z,92.10
2018-12-06T09:23:59.571Z,92.00
2018-12-06T09:26:38.925Z,92.00
2018-12-06T09:29:11.284Z,92.00
2018-12-06T09:31:44.559Z,92.00
2018-12-06T09:34:17.864Z,92.30
2018-12-06T09:36:50.131Z,92.00
2018-12-06T09:39:24.665Z,91.90
2018-12-06T09:41:57.677Z,91.90
2018-12-06T09:44:30.947Z,92.00
2018-12-06T09:47:03.330Z,92.00
2018-12-06T09:52:29.412Z,92.00
2018-12-06T09:55:03.110Z,92.00
2018-12-06T09:57:36.052Z,92.00
2018-12-06T10:00:12.887Z,92.00
2018-12-06T10:02:45.866Z,92.00
2018-12-06T10:05:18.694Z,92.10
2018-12-06T10:07:51.815Z,92.10
2018-12-06T10:10:24.315Z,92.10
2018-12-06T10:12:57.648Z,91.50
2018-12-06T10:18:22.985Z,91.50
2018-12-06T10:20:56.004Z,91.30
2018-12-06T10:23:29.299Z,91.20
2018-12-06T10:26:01.643Z,91.10
2018-12-06T10:28:35.042Z,90.70
2018-12-06T10:31:08.261Z,90.60
2018-12-06T10:33:47.783Z,90.60
2018-12-06T10:36:21.096Z,90.60
2018-12-06T10:38:53.535Z,90.60
2018-12-06T10:41:26.711Z,90.20
2018-12-06T10:43:59.271Z,90.10
2018-12-06T10:46:32.680Z,90.10
2018-12-06T10:49:06.232Z,90.00
2018-12-06T10:51:41.282Z,89.80
2018-12-06T10:54:14.027Z,89.60
2018-12-06T10:56:46.506Z,89.40
2018-12-06T10:59:20.584Z,89.30
2018-12-06T11:01:59.460Z,89.20
2018-12-06T11:04:33.606Z,89.00
2018-12-06T11:07:06.444Z,88.70
2018-12-06T11:09:40.199Z,88.70
2018-12-06T11:12:12.757Z,88.80
2018-12-06T11:14:45.940Z,88.80
2018-12-06T11:17:18.384Z,88.50
2018-12-06T11:19:50.834Z,88.40
2018-12-06T11:22:23.373Z,89.00
2018-12-06T11:24:56.078Z,88.30
2018-12-06T11:27:29.122Z,88.30
2018-12-06T11:30:05.990Z,88.00
2018-12-06T11:32:39.107Z,88.00
2018-12-06T11:35:12.813Z,87.70
2018-12-06T11:37:45.777Z,87.90
2018-12-06T11:40:19.052Z,88.50
2018-12-06T11:42:51.380Z,87.70
2018-12-06T11:45:24.681Z,87.80
2018-12-06T11:47:57.383Z,88.00
2018-12-06T11:50:30.706Z,88.50
2018-12-06T11:53:03.124Z,88.70
2018-12-06T11:55:36.526Z,89.00
2018-12-06T11:58:11.585Z,89.10
2018-12-06T12:00:44.628Z,89.20
2018-12-06T12:03:17.552Z,89.30
2018-12-06T12:05:50.016Z,88.60
2018-12-06T12:08:23.393Z,88.40
2018-12-06T12:10:56.059Z,88.30
2018-12-06T12:13:29.092Z,89.00
2018-12-06T12:16:02.547Z,87.80
2018-12-06T12:18:36.699Z,88.20
2018-12-06T12:21:09.284Z,88.00
2018-12-06T12:23:42.568Z,87.80
2018-12-06T12:26:15.549Z,88.00
2018-12-06T12:28:50.196Z,87.80
2018-12-06T12:31:25.652Z,87.30
2018-12-06T12:33:58.341Z,87.00
2018-12-06T12:36:30.833Z,86.60
2018-12-06T12:39:06.500Z,85.50
2018-12-06T12:41:39.517Z,85.10
2018-12-06T12:44:14.142Z,85.10
2018-12-06T12:46:47.196Z,84.80
2018-12-06T12:49:21.107Z,84.70
2018-12-06T12:51:54.644Z,84.70
2018-12-06T12:54:28.251Z,84.80
2018-12-06T12:57:01.728Z,84.70
2018-12-06T12:59:34.135Z,84.80
2018-12-06T13:02:07.431Z,85.20
2018-12-06T13:04:40.192Z,86.30
2018-12-06T13:07:13.157Z,86.90
2018-12-06T13:09:46.413Z,87.60
2018-12-06T13:12:19.789Z,88.30
2018-12-06T13:14:53.366Z,88.20
2018-12-06T13:17:26.591Z,87.90
2018-12-06T13:19:59.717Z,86.30
2018-12-06T13:22:32.311Z,85.90
2018-12-06T13:25:05.819Z,84.40
2018-12-06T13:27:38.703Z,84.10
2018-12-06T13:30:12.180Z,84.80
2018-12-06T13:32:45.620Z,83.00
2018-12-06T13:35:18.704Z,82.90
2018-12-06T13:37:51.280Z,82.80
2018-12-06T13:40:24.329Z,83.10
2018-12-06T13:42:57.708Z,83.50
2018-12-06T13:45:32.159Z,82.90
2018-12-06T13:48:05.835Z,82.80
2018-12-06T13:50:38.595Z,83.40
2018-12-06T13:53:11.362Z,83.40
2018-12-06T13:55:44.463Z,83.70
2018-12-06T13:58:17.971Z,83.70
2018-12-06T14:00:51.632Z,82.60
2018-12-06T14:03:25.114Z,82.90
2018-12-06T14:05:57.865Z,82.80
2018-12-06T14:08:30.266Z,82.20
2018-12-06T14:11:03.548Z,81.20
2018-12-06T14:13:36.397Z,80.80
2018-12-06T14:16:10.568Z,80.30
2018-12-06T14:18:43.896Z,80.40
2018-12-06T14:21:16.257Z,80.50
2018-12-06T14:23:48.655Z,80.30
2018-12-06T14:26:21.150Z,79.50
2018-12-06T14:28:54.554Z,79.00
2018-12-06T14:31:27.971Z,79.00
2018-12-06T14:34:00.430Z,79.20
2018-12-06T14:36:32.725Z,79.10
2018-12-06T14:39:07.360Z,79.50
2018-12-06T14:41:40.516Z,79.70
2018-12-06T14:44:12.990Z,79.90
2018-12-06T14:46:47.926Z,80.00
2018-12-06T14:49:21.184Z,80.20
2018-12-06T14:51:54.211Z,80.60
2018-12-06T14:54:27.787Z,80.80
2018-12-06T14:57:00.998Z,80.60
2018-12-06T15:02:26.179Z,80.80
2018-12-06T15:04:58.901Z,81.00
2018-12-06T15:07:32.008Z,80.90
2018-12-06T15:10:05.143Z,80.80
2018-12-06T15:12:37.892Z,80.70
2018-12-06T15:15:10.338Z,80.90
2018-12-06T15:17:43.779Z,80.80
2018-12-06T15:20:16.990Z,80.80
2018-12-06T15:22:49.296Z,80.70
2018-12-06T15:25:21.805Z,81.00
2018-12-06T15:27:55.394Z,81.20
2018-12-06T15:30:28.599Z,81.40
2018-12-06T15:33:00.966Z,81.70
2018-12-06T15:35:33.411Z,82.50
2018-12-06T15:38:05.770Z,81.90
2018-12-06T15:40:39.409Z,81.90
2018-12-06T15:43:12.631Z,82.50
2018-12-06T15:45:45.869Z,82.10
2018-12-06T15:48:19.253Z,82.10
2018-12-06T15:50:52.130Z,82.20
2018-12-06T15:53:24.968Z,82.30
2018-12-06T15:55:57.329Z,83.10
2018-12-06T15:58:30.605Z,82.50
2018-12-06T16:01:03.157Z,82.60
2018-12-06T16:03:36.305Z,82.70
2018-12-06T16:06:08.645Z,82.10
2018-12-06T16:08:41.207Z,82.70
2018-12-06T16:11:14.336Z,82.80
2018-12-06T16:13:47.919Z,82.90
2018-12-06T16:16:20.947Z,83.00
2018-12-06T16:18:53.493Z,83.00
2018-12-06T16:24:19.715Z,82.90
2018-12-06T16:26:52.695Z,82.90
2018-12-06T16:29:25.264Z,83.10
2018-12-06T16:31:58.473Z,83.10
2018-12-06T16:34:32.006Z,83.20
2018-12-06T16:37:06.073Z,83.30
2018-12-06T16:39:38.800Z,83.10
2018-12-06T16:42:11.760Z,83.10
2018-12-06T16:44:45.333Z,83.10
2018-12-06T16:47:18.292Z,83.20
2018-12-06T16:49:53.256Z,83.30
2018-12-06T16:52:25.947Z,83.30
2018-12-06T16:54:58.735Z,83.40
2018-12-06T16:57:31.685Z,83.80
2018-12-06T17:00:09.698Z,84.00
2018-12-06T17:02:42.505Z,84.10
2018-12-06T17:05:14.889Z,84.20
2018-12-06T17:07:47.209Z,84.50
2018-12-06T17:10:19.602Z,84.60
2018-12-06T17:12:52.942Z,84.90
2018-12-06T17:15:26.769Z,85.10
2018-12-06T17:17:59.815Z,85.10
2018-12-06T17:20:33.074Z,85.30
2018-12-06T17:23:06.476Z,85.40
2018-12-06T17:25:39.965Z,85.70
2018-12-06T17:28:13.219Z,86.00
2018-12-06T17:30:46.484Z,86.30
2018-12-06T17:33:20.121Z,86.50
2018-12-06T17:35:53.063Z,86.70
2018-12-06T17:38:26.411Z,86.90
2018-12-06T17:40:59.957Z,86.90
2018-12-06T17:43:33.207Z,86.80
2018-12-06T17:46:06.422Z,86.90
2018-12-06T17:48:38.944Z,86.80
2018-12-06T17:51:12.153Z,86.80
2018-12-06T17:53:52.025Z,86.50
2018-12-06T17:56:19.892Z,86.40
2018-12-06T17:58:52.658Z,86.50
2018-12-06T18:01:25.577Z,86.40
2018-12-06T18:03:59.081Z,86.40
2018-12-06T18:06:32.252Z,86.40
2018-12-06T18:09:05.834Z,86.30
2018-12-06T18:11:38.881Z,86.10
2018-12-06T18:14:11.468Z,86.10
2018-12-06T18:16:44.674Z,86.10
2018-12-06T18:19:17.972Z,86.00
2018-12-06T18:21:50.333Z,85.90
2018-12-06T18:24:22.762Z,85.90
2018-12-06T18:26:55.131Z,85.70
2018-12-06T18:29:27.671Z,85.80
2018-12-06T18:32:00.049Z,85.80
2018-12-06T18:34:32.445Z,85.70
2018-12-06T18:37:05.818Z,85.50
2018-12-06T18:42:31.899Z,85.40
2018-12-06T18:45:05.334Z,85.20
2018-12-06T18:47:38.358Z,85.20
2018-12-06T18:50:11.104Z,85.20
2018-12-06T18:52:44.300Z,85.10
2018-12-06T18:55:16.797Z,85.00
2018-12-06T18:57:49.160Z,84.90
2018-12-06T19:00:21.796Z,85.10
2018-12-06T19:02:54.926Z,84.90
2018-12-06T19:05:27.344Z,85.00
2018-12-06T19:08:00.616Z,84.80
2018-12-06T19:10:33.027Z,84.70
2018-12-06T19:13:06.373Z,85.20
2018-12-06T19:15:40.399Z,84.70
2018-12-06T19:18:13.155Z,84.80
2018-12-06T19:20:46.149Z,84.80
2018-12-06T19:23:19.257Z,84.60
2018-12-06T19:25:51.629Z,84.60
2018-12-06T19:28:24.068Z,85.40
2018-12-06T19:30:57.333Z,84.70
2018-12-06T19:33:30.585Z,84.80
2018-12-06T19:36:04.460Z,84.80
2018-12-06T19:38:37.358Z,84.80
2018-12-06T19:41:09.884Z,85.50
2018-12-06T19:43:43.307Z,84.70
2018-12-06T19:46:16.689Z,84.70
2018-12-06T19:48:50.338Z,84.80
2018-12-06T19:51:23.505Z,84.70
2018-12-06T19:53:56.646Z,84.60
2018-12-06T19:56:30.547Z,84.50
2018-12-06T19:59:03.493Z,84.60
2018-12-06T20:01:36.711Z,84.40
2018-12-06T20:04:10.199Z,84.40
2018-12-06T20:06:50.601Z,84.40
2018-12-06T20:09:23.886Z,84.20
2018-12-06T20:11:57.228Z,84.30
2018-12-06T20:14:30.162Z,84.30
2018-12-06T20:17:09.716Z,84.30
2018-12-06T20:19:43.053Z,84.30
2018-12-06T20:22:16.348Z,84.30
2018-12-06T20:24:49.910Z,84.40
2018-12-06T20:27:23.883Z,84.30
2018-12-06T20:29:57.532Z,84.10
2018-12-06T20:32:30.716Z,84.00
2018-12-06T20:35:05.782Z,84.00
2018-12-06T20:37:39.408Z,83.90
2018-12-06T20:40:12.844Z,83.70
2018-12-06T20:42:45.854Z,83.60
2018-12-06T20:45:19.522Z,83.50
2018-12-06T20:47:52.402Z,83.20
2018-12-06T20:50:26.148Z,83.20
2018-12-06T20:52:59.385Z,83.10
2018-12-06T20:55:32.531Z,82.90
2018-12-06T20:58:06.915Z,82.80
2018-12-06T21:00:41.516Z,82.70
2018-12-06T21:03:14.956Z,82.60
2018-12-06T21:05:48.457Z,82.60
2018-12-06T21:08:21.981Z,82.50
2018-12-06T21:10:55.047Z,82.60
2018-12-06T21:13:28.436Z,82.30
2018-12-06T21:16:01.906Z,82.20
2018-12-06T21:18:35.189Z,82.20
2018-12-06T21:21:08.354Z,81.90
2018-12-06T21:23:41.589Z,81.90
2018-12-06T21:26:14.925Z,81.90
2018-12-06T21:28:47.604Z,82.40
2018-12-06T21:31:20.591Z,81.70
2018-12-06T21:33:53.264Z,81.70
2018-12-06T21:36:26.420Z,81.70
2018-12-06T21:38:59.643Z,81.70
2018-12-06T21:41:32.948Z,81.60
2018-12-06T21:44:06.432Z,81.30
2018-12-06T21:46:39.694Z,81.30
2018-12-06T21:49:13.036Z,81.20
2018-12-06T21:51:46.367Z,81.30
2018-12-06T21:54:19.281Z,81.20
2018-12-06T21:56:52.224Z,81.00
2018-12-06T21:59:25.544Z,81.10
2018-12-06T22:02:17.913Z,81.20
2018-12-06T22:04:51.392Z,81.10
2018-12-06T22:07:24.592Z,80.80
2018-12-06T22:09:58.039Z,80.70
2018-12-06T22:12:31.180Z,80.70
2018-12-06T22:15:05.054Z,80.80
2018-12-06T22:17:37.823Z,80.80
2018-12-06T22:23:09.001Z,80.60
2018-12-06T22:25:41.886Z,80.60
2018-12-06T22:28:14.360Z,80.40
2018-12-06T22:30:47.951Z,80.20
2018-12-06T22:33:21.153Z,80.30
2018-12-06T22:35:54.446Z,80.20
2018-12-06T22:38:34.148Z,80.20
2018-12-06T22:41:02.741Z,80.20
2018-12-06T22:43:36.286Z,80.30
2018-12-06T22:46:09.464Z,80.20
2018-12-06T22:48:49.485Z,80.40
2018-12-06T22:51:24.433Z,80.40
2018-12-06T22:53:57.385Z,80.40
2018-12-06T22:56:30.988Z,80.30
2018-12-06T22:59:04.763Z,80.20
2018-12-06T23:01:39.288Z,80.10
2018-12-06T23:04:12.908Z,79.70
2018-12-06T23:06:46.214Z,80.10
2018-12-06T23:09:19.500Z,80.10
2018-12-06T23:11:52.813Z,80.00
2018-12-06T23:14:25.142Z,80.00
2018-12-06T23:16:57.562Z,80.00
2018-12-06T23:19:30.826Z,79.90
2018-12-06T23:22:04.331Z,79.80
2018-12-06T23:24:37.563Z,79.70
2018-12-06T23:27:11.240Z,79.50
2018-12-06T23:29:44.100Z,79.60
2018-12-06T23:32:17.434Z,79.50
2018-12-06T23:34:49.855Z,79.50
2018-12-06T23:37:23.141Z,79.40
2018-12-06T23:39:56.312Z,79.50
2018-12-06T23:42:28.741Z,79.50
2018-12-06T23:45:02.193Z,79.50
2018-12-06T23:47:35.464Z,79.50
2018-12-06T23:50:08.931Z,79.40
2018-12-06T23:52:42.248Z,80.10
2018-12-06T23:55:14.751Z,79.40
2018-12-06T23:57:48.020Z,79.50
